createdAt,value
2018-04-27T00:07:01.854Z,54.00
2018-04-27T00:07:33.536Z,54.60
2018-04-27T00:08:05.218Z,54.70
2018-04-27T00:08:36.892Z,55.10
2018-04-27T00:09:08.592Z,55.10
2018-04-27T00:26:42.791Z,61.50
2018-04-27T00:27:14.463Z,62.00
2018-04-27T00:27:46.119Z,62.20
2018-04-27T00:28:17.775Z,62.70
2018-04-27T00:28:49.473Z,62.70
2018-04-27T00:29:21.137Z,62.50
2018-04-27T00:29:52.795Z,62.50
2018-04-27T00:30:24.461Z,62.50
2018-04-27T00:30:56.117Z,62.50
2018-04-27T00:31:27.769Z,62.70
2018-04-27T00:31:59.467Z,62.90
2018-04-27T00:32:31.129Z,62.90
2018-04-27T00:33:02.855Z,63.10
2018-04-27T00:33:34.622Z,62.90
2018-04-27T00:34:06.252Z,63.20
2018-04-27T00:34:37.901Z,63.30
2018-04-27T00:35:09.580Z,63.50
2018-04-27T00:35:41.239Z,63.50
2018-04-27T00:36:12.895Z,64.10
2018-04-27T00:36:44.580Z,63.90
2018-04-27T00:37:16.249Z,64.10
2018-04-27T00:37:47.903Z,64.30
2018-04-27T00:38:19.568Z,64.50
2018-04-27T00:38:51.231Z,64.50
2018-04-27T00:39:22.888Z,64.30
2018-04-27T00:45:40.089Z,66.50
2018-04-27T00:46:11.762Z,67.10
2018-04-27T00:46:43.426Z,67.10
2018-04-27T00:47:15.114Z,67.60
2018-04-27T00:47:46.800Z,68.00
2018-04-27T00:48:18.436Z,67.80
2018-04-27T00:48:50.090Z,67.90
2018-04-27T00:49:21.736Z,67.80
2018-04-27T00:49:53.425Z,67.90
2018-04-27T00:50:25.113Z,68.10
2018-04-27T00:50:56.779Z,68.40
2018-04-27T00:51:28.476Z,68.50
2018-04-27T00:52:00.166Z,68.50
2018-04-27T00:52:50.436Z,68.70
2018-04-27T00:53:22.052Z,68.80
2018-04-27T00:53:53.701Z,68.70
2018-04-27T00:54:25.369Z,68.40
2018-04-27T01:04:47.244Z,69.30
2018-04-27T01:05:18.933Z,69.40
2018-04-27T01:05:50.617Z,69.40
2018-04-27T01:06:22.275Z,69.30
2018-04-27T01:06:53.954Z,69.20
2018-04-27T01:07:25.625Z,69.30
2018-04-27T01:07:57.301Z,69.90
2018-04-27T01:08:28.959Z,70.10
2018-04-27T01:09:00.607Z,70.20
2018-04-27T01:09:32.265Z,70.30
2018-04-27T01:23:59.080Z,73.30
2018-04-27T01:24:30.749Z,74.00
2018-04-27T01:43:12.426Z,79.10
2018-04-27T01:43:44.100Z,79.20
2018-04-27T01:44:15.766Z,79.80
2018-04-27T01:44:47.432Z,80.20
2018-04-27T01:45:19.101Z,80.10
2018-04-27T01:45:50.756Z,79.80
2018-04-27T01:46:22.415Z,80.30
2018-04-27T01:46:54.068Z,80.60
2018-04-27T01:47:25.734Z,80.70
2018-04-27T01:47:57.383Z,80.50
2018-04-27T01:48:29.111Z,80.50
2018-04-27T01:49:00.762Z,80.40
2018-04-27T01:49:32.413Z,80.40
2018-04-27T01:50:04.091Z,80.30
2018-04-27T01:50:35.753Z,80.70
2018-04-27T01:51:07.413Z,81.10
2018-04-27T01:51:39.055Z,81.10
2018-04-27T01:52:10.699Z,81.40
2018-04-27T01:52:42.371Z,81.20
2018-04-27T01:53:14.048Z,82.10
2018-04-27T01:53:45.706Z,82.10
2018-04-27T01:54:17.387Z,82.10
2018-04-27T01:54:49.048Z,82.00
2018-04-27T02:02:55.619Z,81.90
2018-04-27T02:03:27.289Z,82.10
2018-04-27T02:03:58.971Z,82.50
2018-04-27T02:04:30.629Z,82.50
2018-04-27T02:05:02.323Z,82.30
2018-04-27T02:05:33.975Z,82.50
2018-04-27T02:06:05.625Z,83.10
2018-04-27T02:06:37.295Z,82.90
2018-04-27T02:07:08.967Z,82.90
2018-04-27T02:07:40.645Z,83.20
2018-04-27T02:08:12.295Z,83.30
2018-04-27T02:08:43.953Z,83.40
2018-04-27T02:09:15.619Z,83.50
2018-04-27T02:09:47.258Z,83.40
2018-04-27T02:21:50.354Z,84.20
2018-04-27T02:22:21.976Z,84.60
2018-04-27T02:22:53.620Z,84.60
2018-04-27T02:23:25.232Z,85.00
2018-04-27T02:23:56.890Z,84.90
2018-04-27T02:24:28.516Z,84.70
2018-04-27T02:25:00.130Z,84.70
2018-04-27T02:41:01.056Z,86.60
2018-04-27T02:41:32.695Z,86.30
2018-04-27T02:42:04.318Z,86.20
2018-04-27T02:42:35.927Z,86.20
2018-04-27T02:43:07.552Z,86.50
2018-04-27T02:43:39.169Z,86.60
2018-04-27T02:44:10.783Z,86.60
2018-04-27T02:44:42.407Z,86.50
2018-04-27T02:45:14.044Z,86.70
2018-04-27T02:45:45.669Z,86.70
2018-04-27T02:46:17.289Z,86.90
2018-04-27T02:46:48.939Z,87.10
2018-04-27T02:47:20.575Z,87.30
2018-04-27T02:47:52.211Z,87.50
2018-04-27T02:48:23.829Z,87.40
2018-04-27T02:48:55.537Z,87.30
2018-04-27T02:49:27.167Z,87.30
2018-04-27T02:49:58.866Z,87.40
2018-04-27T02:50:30.424Z,87.50
2018-04-27T02:51:02.103Z,87.60
2018-04-27T02:51:33.747Z,87.60
2018-04-27T02:52:05.387Z,87.80
2018-04-27T02:52:37.012Z,87.80
2018-04-27T02:53:08.630Z,87.70
2018-04-27T02:53:40.284Z,87.70
2018-04-27T02:54:11.905Z,87.70
2018-04-27T02:54:43.521Z,87.90
2018-04-27T02:55:15.149Z,87.90
2018-04-27T03:00:13.536Z,87.70
2018-04-27T03:00:45.176Z,87.70
2018-04-27T03:01:16.799Z,87.80
2018-04-27T03:01:48.422Z,87.70
2018-04-27T03:02:20.054Z,87.80
2018-04-27T03:02:51.672Z,87.80
2018-04-27T03:03:23.292Z,87.80
2018-04-27T03:03:54.924Z,87.90
2018-04-27T03:04:26.550Z,87.80
2018-04-27T03:04:58.200Z,87.70
2018-04-27T03:05:29.809Z,87.80
2018-04-27T03:06:01.436Z,87.90
2018-04-27T03:06:33.060Z,88.10
2018-04-27T03:07:04.696Z,88.30
2018-04-27T03:07:36.316Z,88.30
2018-04-27T03:08:07.955Z,88.40
2018-04-27T03:08:39.581Z,88.50
2018-04-27T03:09:11.208Z,88.50
2018-04-27T03:09:42.824Z,88.30
2018-04-27T03:10:14.452Z,88.60
2018-04-27T03:19:23.398Z,88.80
2018-04-27T03:19:55.028Z,89.30
2018-04-27T03:20:26.652Z,89.20
2018-04-27T03:20:58.273Z,89.20
2018-04-27T03:21:29.897Z,89.40
2018-04-27T03:22:01.524Z,89.60
2018-04-27T03:22:33.137Z,89.50
2018-04-27T03:23:04.762Z,89.60
2018-04-27T03:23:36.374Z,89.60
2018-04-27T03:24:07.970Z,89.70
2018-04-27T03:24:39.608Z,89.70
2018-04-27T03:25:11.262Z,89.60
2018-04-27T03:39:06.522Z,89.90
2018-04-27T03:39:38.137Z,90.00
2018-04-27T03:40:09.802Z,90.20
2018-04-27T03:40:41.420Z,90.20
2018-04-27T03:58:19.880Z,90.20
2018-04-27T03:58:51.497Z,89.90
2018-04-27T03:59:41.763Z,89.90
2018-04-27T04:00:32.009Z,89.80
2018-04-27T04:01:22.112Z,90.00
2018-04-27T04:03:30.653Z,90.80
2018-04-27T04:04:20.945Z,91.00
2018-04-27T04:05:11.218Z,91.00
2018-04-27T04:05:42.797Z,91.20
2018-04-27T04:06:14.434Z,91.60
2018-04-27T04:06:46.067Z,91.60
2018-04-27T04:07:17.719Z,91.60
2018-04-27T04:07:49.328Z,91.50
2018-04-27T04:08:21.035Z,91.60
2018-04-27T04:08:52.635Z,92.10
2018-04-27T04:09:24.296Z,92.50
2018-04-27T04:09:55.933Z,92.50
2018-04-27T04:10:27.541Z,92.30
2018-04-27T04:10:59.149Z,92.40
2018-04-27T04:11:30.770Z,92.20
2018-04-27T04:12:02.404Z,92.20
2018-04-27T04:12:34.044Z,92.20
2018-04-27T04:13:05.664Z,92.20
2018-04-27T04:13:37.339Z,92.10
2018-04-27T04:14:08.974Z,92.40
2018-04-27T04:14:40.610Z,92.50
2018-04-27T04:15:12.289Z,92.50
2018-04-27T04:15:43.948Z,92.30
2018-04-27T04:16:15.571Z,92.40
2018-04-27T04:16:47.191Z,92.30
2018-04-27T04:17:18.832Z,92.50
2018-04-27T04:17:50.462Z,92.40
2018-04-27T04:18:22.071Z,92.30
2018-04-27T04:18:53.687Z,92.60
2018-04-27T04:19:25.349Z,92.70
2018-04-27T04:19:56.941Z,92.70
2018-04-27T04:20:28.571Z,92.70
2018-04-27T04:21:00.199Z,92.60
2018-04-27T04:21:31.821Z,92.60
2018-04-27T04:22:03.449Z,92.60
2018-04-27T04:22:35.099Z,92.60
2018-04-27T04:23:06.711Z,92.50
2018-04-27T04:23:38.323Z,92.40
2018-04-27T04:24:10.243Z,92.50
2018-04-27T04:24:41.903Z,92.50
2018-04-27T04:25:13.541Z,92.80
2018-04-27T04:25:45.157Z,93.00
2018-04-27T04:26:17.529Z,93.10
2018-04-27T04:26:49.207Z,92.90
2018-04-27T04:27:20.783Z,92.90
2018-04-27T04:27:52.387Z,92.90
2018-04-27T04:28:23.993Z,92.80
2018-04-27T04:28:55.608Z,92.90
2018-04-27T04:29:27.245Z,93.00
2018-04-27T04:29:58.872Z,93.10
2018-04-27T04:30:30.509Z,92.90
2018-04-27T04:31:02.166Z,93.10
2018-04-27T04:31:33.790Z,93.00
2018-04-27T04:32:05.411Z,93.00
2018-04-27T04:32:37.035Z,92.90
2018-04-27T04:33:08.682Z,93.10
2018-04-27T04:33:40.293Z,93.20
2018-04-27T04:34:11.934Z,93.40
2018-04-27T04:34:43.551Z,93.50
2018-04-27T04:35:15.221Z,93.60
2018-04-27T04:35:46.855Z,93.60
2018-04-27T04:36:18.455Z,93.70
2018-04-27T04:36:50.079Z,93.90
2018-04-27T04:37:21.717Z,93.70
2018-04-27T04:37:53.326Z,93.70
2018-04-27T04:38:25.039Z,93.90
2018-04-27T04:38:56.606Z,94.10
2018-04-27T04:39:28.227Z,94.30
2018-04-27T04:39:59.854Z,94.40
2018-04-27T04:40:31.485Z,94.50
2018-04-27T04:41:03.118Z,94.60
2018-04-27T04:41:34.751Z,94.70
2018-04-27T04:42:06.370Z,94.80
2018-04-27T04:42:37.999Z,94.90
2018-04-27T04:43:09.621Z,94.90
2018-04-27T04:43:41.267Z,95.10
2018-04-27T04:44:12.939Z,95.10
2018-04-27T04:44:44.566Z,95.30
2018-04-27T04:45:16.211Z,95.20
2018-04-27T04:45:47.837Z,95.30
2018-04-27T04:46:19.446Z,95.30
2018-04-27T04:46:51.047Z,95.30
2018-04-27T04:47:22.692Z,95.30
2018-04-27T04:47:54.338Z,95.60
2018-04-27T04:48:26.021Z,95.50
2018-04-27T04:48:57.649Z,95.60
2018-04-27T04:49:29.303Z,95.70
2018-04-27T04:50:00.967Z,95.70
2018-04-27T04:50:32.597Z,95.70
2018-04-27T04:51:04.247Z,95.60
2018-04-27T04:51:35.877Z,95.50
2018-04-27T04:52:07.505Z,95.60
2018-04-27T04:52:39.177Z,95.40
2018-04-27T04:53:10.785Z,95.30
2018-04-27T04:53:42.399Z,95.20
2018-04-27T04:54:14.028Z,95.30
2018-04-27T04:54:45.662Z,95.10
2018-04-27T04:55:17.287Z,95.00
2018-04-27T04:55:48.919Z,94.90
2018-04-27T04:56:20.539Z,94.90
2018-04-27T04:56:52.157Z,94.80
2018-04-27T04:57:23.787Z,94.80
2018-04-27T04:57:55.411Z,94.50
2018-04-27T04:58:27.033Z,94.30
2018-04-27T04:58:58.647Z,94.20
2018-04-27T04:59:30.293Z,94.10
2018-04-27T05:00:02.001Z,94.10
2018-04-27T05:00:33.643Z,94.00
2018-04-27T05:01:05.314Z,93.90
2018-04-27T05:01:36.947Z,93.80
2018-04-27T05:02:08.579Z,93.70
2018-04-27T05:02:40.253Z,93.50
2018-04-27T05:03:11.835Z,93.50
2018-04-27T05:03:43.493Z,93.20
2018-04-27T05:04:15.139Z,93.00
2018-04-27T05:04:46.772Z,92.70
2018-04-27T05:05:18.399Z,92.50
2018-04-27T05:05:50.041Z,92.40
2018-04-27T05:06:21.679Z,91.80
2018-04-27T05:06:53.295Z,91.70
2018-04-27T05:07:24.921Z,91.40
2018-04-27T05:07:56.545Z,91.10
2018-04-27T05:08:28.159Z,90.70
2018-04-27T05:08:59.781Z,90.30
2018-04-27T05:09:31.411Z,90.20
2018-04-27T05:10:03.060Z,90.10
2018-04-27T05:10:34.738Z,89.90
2018-04-27T05:11:06.348Z,89.70
2018-04-27T05:11:38.063Z,89.70
2018-04-27T05:12:09.700Z,89.50
2018-04-27T05:12:41.311Z,88.50
2018-04-27T05:13:12.929Z,87.50
2018-04-27T05:13:44.569Z,86.40
2018-04-27T05:14:16.197Z,85.50
2018-04-27T05:14:47.828Z,84.10
2018-04-27T05:15:19.463Z,82.20
2018-04-27T05:15:51.090Z,81.20
2018-04-27T05:16:22.771Z,78.90
2018-04-27T05:16:54.401Z,76.50
2018-04-27T05:17:26.011Z,75.60
2018-04-27T05:17:57.683Z,74.50
2018-04-27T05:18:45.213Z,73.70
2018-04-27T05:19:16.921Z,73.00
2018-04-27T05:19:54.267Z,70.20
2018-04-27T05:20:25.721Z,69.40
2018-04-27T05:20:57.332Z,67.90
2018-04-27T05:21:28.939Z,67.60
2018-04-27T05:22:00.567Z,66.90
2018-04-27T05:22:32.209Z,65.60
2018-04-27T05:23:03.835Z,64.10
2018-04-27T05:23:35.504Z,62.80
2018-04-27T05:24:07.149Z,61.10
2018-04-27T05:24:38.765Z,59.40
2018-04-27T05:25:10.405Z,59.60
2018-04-27T05:25:42.043Z,59.60
2018-04-27T05:26:13.729Z,59.40
2018-04-27T05:26:45.373Z,59.40
2018-04-27T05:27:17.012Z,59.60
2018-04-27T05:27:48.656Z,58.90
2018-04-27T05:28:20.300Z,58.70
2018-04-27T05:28:51.945Z,58.20
2018-04-27T05:29:23.542Z,57.70
2018-04-27T05:29:55.195Z,57.00
2018-04-27T05:30:26.863Z,56.80
2018-04-27T05:31:17.085Z,56.50
2018-04-27T05:31:48.774Z,55.70
2018-04-27T05:32:20.458Z,54.80
2018-04-27T05:32:58.254Z,54.50
2018-04-27T05:33:29.924Z,54.30
2018-04-27T05:34:01.593Z,54.30
2018-04-27T05:34:33.246Z,54.40
2018-04-27T05:35:04.911Z,54.90
2018-04-27T05:35:36.559Z,54.70
2018-04-27T05:36:08.253Z,53.90
2018-04-27T05:36:39.915Z,53.70
2018-04-27T05:37:11.564Z,53.20
2018-04-27T05:37:43.219Z,53.00
2018-04-27T05:38:14.876Z,52.30
2018-04-27T05:38:46.516Z,52.50
2018-04-27T05:39:18.178Z,52.20
2018-04-27T05:39:49.876Z,52.30
2018-04-27T05:40:21.530Z,52.70
2018-04-27T05:40:53.228Z,52.20
2018-04-27T05:41:24.903Z,52.50
2018-04-27T05:41:56.587Z,52.10
2018-04-27T05:42:28.252Z,52.10
2018-04-27T05:42:59.930Z,52.30
2018-04-27T05:43:31.636Z,51.60
2018-04-27T05:44:03.307Z,51.20
2018-04-27T05:44:34.970Z,51.10
2018-04-27T05:45:06.649Z,50.90
2018-04-27T05:45:38.326Z,50.10
2018-04-27T05:46:10.032Z,49.30
2018-04-27T05:46:41.728Z,49.50
2018-04-27T05:47:13.412Z,49.20
2018-04-27T05:47:45.101Z,49.00
2018-04-27T05:48:16.839Z,49.40
2018-04-27T05:48:48.490Z,49.00
2018-04-27T05:49:20.160Z,49.10
2018-04-27T05:49:51.818Z,49.30
2018-04-27T05:50:23.488Z,49.20
2018-04-27T05:50:55.208Z,48.80
2018-04-27T05:51:26.896Z,48.70
2018-04-27T05:51:58.548Z,48.90
2018-04-27T05:52:30.242Z,48.30
2018-04-27T05:53:01.894Z,48.30
2018-04-27T05:53:33.528Z,48.90
2018-04-27T05:54:05.202Z,49.00
2018-04-27T05:54:36.855Z,49.30
2018-04-27T05:55:08.483Z,49.20
2018-04-27T05:55:40.191Z,48.60
2018-04-27T05:56:11.889Z,48.40
2018-04-27T05:56:43.552Z,48.50
2018-04-27T05:57:15.196Z,48.00
2018-04-27T05:57:46.870Z,47.40
2018-04-27T05:58:18.586Z,47.50
2018-04-27T05:58:50.258Z,47.60
2018-04-27T05:59:21.927Z,47.60
2018-04-27T05:59:53.546Z,47.80
2018-04-27T06:00:25.236Z,45.80
2018-04-27T06:00:56.910Z,46.30
2018-04-27T06:01:28.560Z,46.40
2018-04-27T06:02:00.178Z,45.90
2018-04-27T06:02:31.788Z,45.00
2018-04-27T06:03:03.442Z,44.40
2018-04-27T06:04:08.301Z,44.20
2018-04-27T06:04:40.013Z,44.20
2018-04-27T06:05:11.638Z,43.00
2018-04-27T06:05:43.292Z,43.10
2018-04-27T06:06:14.984Z,42.30
2018-04-27T06:06:46.644Z,42.20
2018-04-27T06:07:18.308Z,42.20
2018-04-27T06:07:49.926Z,42.10
2018-04-27T06:08:21.576Z,42.10
2018-04-27T06:08:53.232Z,42.40
2018-04-27T06:09:24.894Z,41.70
2018-04-27T06:09:56.539Z,41.60
2018-04-27T06:10:28.202Z,42.30
2018-04-27T06:10:59.830Z,42.30
2018-04-27T06:11:31.479Z,42.10
2018-04-27T06:12:03.130Z,41.10
2018-04-27T06:12:34.779Z,40.70
2018-04-27T06:13:06.433Z,39.30
2018-04-27T06:13:38.081Z,38.30
2018-04-27T06:14:09.709Z,38.30
2018-04-27T06:14:41.364Z,36.90
2018-04-27T06:15:13.008Z,35.80
2018-04-27T06:15:44.713Z,34.50
2018-04-27T06:16:16.353Z,35.00
2018-04-27T06:16:47.985Z,35.50
2018-04-27T06:17:19.637Z,36.30
2018-04-27T06:17:51.282Z,36.70
2018-04-27T06:18:22.912Z,36.90
2018-04-27T06:18:54.573Z,34.40
2018-04-27T06:19:26.208Z,34.20
2018-04-27T06:19:57.854Z,34.40
2018-04-27T06:20:29.512Z,33.90
2018-04-27T06:21:01.167Z,31.10
2018-04-27T06:21:32.835Z,31.70
2018-04-27T06:22:04.483Z,32.40
2018-04-27T06:22:36.145Z,31.00
2018-04-27T06:23:07.790Z,30.60
2018-04-27T06:23:39.432Z,31.40
2018-04-27T06:24:11.083Z,30.70
2018-04-27T06:24:42.765Z,28.40
2018-04-27T06:25:14.460Z,27.80
2018-04-27T06:25:46.116Z,28.30
2018-04-27T06:26:17.800Z,28.90
2018-04-27T06:26:49.448Z,28.30
2018-04-27T06:27:21.113Z,26.30
2018-04-27T06:27:52.766Z,25.50
2018-04-27T06:28:24.458Z,26.40
2018-04-27T06:28:56.121Z,27.60
2018-04-27T06:29:27.786Z,27.40
2018-04-27T06:30:06.500Z,26.80
2018-04-27T06:30:38.170Z,27.40
2018-04-27T06:31:09.803Z,24.80
2018-04-27T06:31:41.463Z,24.70
2018-04-27T06:32:13.093Z,25.30
2018-04-27T06:32:44.759Z,24.00
2018-04-27T06:33:16.400Z,24.70
2018-04-27T06:33:48.045Z,24.40
2018-04-27T06:34:19.684Z,24.50
2018-04-27T06:34:51.339Z,23.00
2018-04-27T06:35:22.993Z,23.30
2018-04-27T06:35:54.666Z,23.00
2018-04-27T06:36:26.312Z,21.70
2018-04-27T06:36:57.942Z,21.70
2018-04-27T06:37:29.584Z,22.40
2018-04-27T06:38:01.280Z,23.70
2018-04-27T06:38:32.970Z,25.10
2018-04-27T06:39:04.670Z,25.40
2018-04-27T06:39:36.345Z,24.40
2018-04-27T06:40:08.014Z,22.40
2018-04-27T06:40:39.690Z,23.20
2018-04-27T06:41:11.430Z,23.70
2018-04-27T06:41:43.126Z,23.80
2018-04-27T06:42:14.794Z,23.40
2018-04-27T06:42:46.498Z,21.00
2018-04-27T06:43:18.198Z,20.90
2018-04-27T06:43:49.877Z,20.70
2018-04-27T06:44:21.598Z,21.40
2018-04-27T06:44:53.278Z,20.20
2018-04-27T06:45:24.967Z,19.30
2018-04-27T06:45:56.645Z,20.30
2018-04-27T06:46:28.338Z,20.10
2018-04-27T06:47:00.027Z,20.30
2018-04-27T06:47:31.712Z,20.80
2018-04-27T06:48:03.400Z,20.80
2018-04-27T06:48:35.058Z,21.90
2018-04-27T06:49:06.746Z,20.90
2018-04-27T06:49:38.473Z,21.30
2018-04-27T06:50:10.160Z,21.20
2018-04-27T06:50:41.836Z,20.40
2018-04-27T06:51:13.512Z,20.40
2018-04-27T06:51:45.175Z,20.90
2018-04-27T06:52:16.833Z,20.50
2018-04-27T06:52:48.498Z,19.60
2018-04-27T06:53:20.168Z,19.50
2018-04-27T06:53:51.796Z,19.80
2018-04-27T06:54:23.459Z,19.50
2018-04-27T06:54:55.148Z,19.60
2018-04-27T06:55:26.830Z,18.70
2018-04-27T06:55:58.527Z,19.50
2018-04-27T06:56:30.218Z,19.80
2018-04-27T06:57:01.924Z,17.40
2018-04-27T06:57:33.614Z,17.90
2018-04-27T06:58:05.320Z,18.70
2018-04-27T06:58:37.028Z,17.70
2018-04-27T06:59:08.721Z,17.30
2018-04-27T06:59:40.408Z,16.30
2018-04-27T07:00:12.118Z,15.80
2018-04-27T07:00:43.802Z,16.90
2018-04-27T07:01:15.548Z,18.00
2018-04-27T07:01:47.260Z,18.40
2018-04-27T07:02:18.929Z,18.90
2018-04-27T07:02:50.630Z,19.80
2018-04-27T07:03:22.379Z,19.80
2018-04-27T07:03:53.982Z,17.70
2018-04-27T07:04:25.688Z,16.50
2018-04-27T07:04:57.404Z,17.40
2018-04-27T07:05:29.112Z,18.40
2018-04-27T07:06:00.816Z,19.30
2018-04-27T07:06:32.514Z,19.60
2018-04-27T07:07:04.221Z,18.80
2018-04-27T07:07:35.900Z,18.80
2018-04-27T07:08:07.604Z,16.40
2018-04-27T07:08:39.324Z,17.20
2018-04-27T07:09:11.029Z,17.80
2018-04-27T07:09:42.711Z,18.30
2018-04-27T07:10:14.390Z,16.50
2018-04-27T07:10:46.055Z,16.50
2018-04-27T07:11:17.728Z,17.40
2018-04-27T07:11:49.386Z,18.30
2018-04-27T07:12:21.065Z,18.90
2018-04-27T07:12:52.774Z,17.10
2018-04-27T07:13:24.469Z,17.60
2018-04-27T07:13:56.156Z,18.00
2018-04-27T07:14:27.837Z,18.70
2018-04-27T07:14:59.537Z,18.70
2018-04-27T07:15:31.242Z,18.60
2018-04-27T07:16:02.911Z,17.90
2018-04-27T07:16:34.553Z,18.30
2018-04-27T07:17:06.274Z,18.70
2018-04-27T07:17:37.852Z,18.70
2018-04-27T07:18:09.502Z,16.90
2018-04-27T07:18:41.169Z,17.30
2018-04-27T07:19:12.795Z,17.00
2018-04-27T07:19:44.446Z,17.00
2018-04-27T07:20:16.093Z,17.70
2018-04-27T07:20:47.753Z,17.20
2018-04-27T07:21:19.407Z,17.00
2018-04-27T07:21:51.067Z,16.40
2018-04-27T07:22:22.768Z,16.20
2018-04-27T07:22:54.450Z,16.90
2018-04-27T07:23:26.111Z,16.90
2018-04-27T07:23:57.791Z,15.80
2018-04-27T07:24:29.471Z,16.20
2018-04-27T07:25:01.150Z,14.10
2018-04-27T07:25:32.835Z,14.30
2018-04-27T07:26:04.521Z,14.90
2018-04-27T07:26:36.223Z,13.20
2018-04-27T07:27:07.867Z,13.00
2018-04-27T07:27:39.518Z,13.60
2018-04-27T07:28:11.175Z,11.70
2018-04-27T07:28:42.834Z,11.90
2018-04-27T07:29:14.486Z,12.10
2018-04-27T07:29:46.151Z,12.20
2018-04-27T07:30:17.828Z,11.90
2018-04-27T07:30:49.504Z,10.90
2018-04-27T07:31:21.168Z,8.10
2018-04-27T07:31:52.821Z,8.00
2018-04-27T07:32:24.467Z,7.20
2018-04-27T07:32:56.147Z,8.30
2018-04-27T07:33:28.057Z,6.60
2018-04-27T07:33:59.705Z,6.00
2018-04-27T07:34:31.339Z,5.20
2018-04-27T07:35:03.003Z,5.00
2018-04-27T07:35:34.670Z,5.50
2018-04-27T07:36:06.294Z,5.10
2018-04-27T07:36:37.949Z,5.00
2018-04-27T07:37:09.671Z,5.00
2018-04-27T07:37:41.367Z,5.00
2018-04-27T07:38:13.034Z,5.00
2018-04-27T07:38:44.693Z,5.00
2018-04-27T07:39:16.335Z,5.00
2018-04-27T07:39:47.976Z,5.00
2018-04-27T07:40:19.610Z,5.00
2018-04-27T07:40:51.282Z,5.00
2018-04-27T07:41:22.957Z,5.00
2018-04-27T07:41:54.643Z,5.00
2018-04-27T07:42:26.324Z,5.00
2018-04-27T07:42:58.051Z,5.00
2018-04-27T07:43:29.770Z,5.00
2018-04-27T07:44:01.469Z,5.00
2018-04-27T07:44:33.152Z,5.00
2018-04-27T07:45:04.858Z,5.00
2018-04-27T07:45:36.592Z,5.00
2018-04-27T07:46:08.279Z,5.00
2018-04-27T07:46:39.948Z,5.00
2018-04-27T07:47:11.648Z,5.00
2018-04-27T07:47:43.367Z,5.00
2018-04-27T07:48:15.019Z,5.00
2018-04-27T07:48:46.705Z,5.00
2018-04-27T07:49:18.444Z,5.00
2018-04-27T07:49:50.126Z,5.00
2018-04-27T07:50:21.819Z,5.00
2018-04-27T07:50:53.505Z,5.00
2018-04-27T07:51:25.180Z,5.00
2018-04-27T07:51:56.894Z,5.00
2018-04-27T07:52:28.602Z,5.00
2018-04-27T07:53:00.270Z,5.00
2018-04-27T07:53:31.978Z,5.00
2018-04-27T07:54:03.652Z,5.00
2018-04-27T07:54:35.273Z,5.00
2018-04-27T07:55:06.964Z,5.00
2018-04-27T07:55:38.646Z,5.00
2018-04-27T07:56:10.320Z,5.00
2018-04-27T07:56:42.000Z,5.00
2018-04-27T07:57:13.729Z,5.00
2018-04-27T07:57:45.434Z,5.00
2018-04-27T07:58:17.109Z,5.00
2018-04-27T07:58:48.778Z,5.00
2018-04-27T07:59:20.494Z,5.00
2018-04-27T07:59:52.174Z,5.00
2018-04-27T08:00:23.865Z,5.00
2018-04-27T08:00:55.566Z,5.00
2018-04-27T08:01:27.222Z,5.00
2018-04-27T08:01:58.946Z,5.00
2018-04-27T08:02:30.644Z,5.00
2018-04-27T08:03:02.340Z,5.00
2018-04-27T08:03:34.024Z,5.00
2018-04-27T08:04:05.698Z,5.00
2018-04-27T08:04:37.378Z,5.00
2018-04-27T08:05:09.088Z,5.00
2018-04-27T08:05:40.779Z,5.00
2018-04-27T08:06:12.452Z,5.00
2018-04-27T08:06:44.152Z,5.00
2018-04-27T08:07:15.813Z,5.00
2018-04-27T08:07:47.518Z,5.00
2018-04-27T08:08:19.229Z,5.00
2018-04-27T08:08:51.036Z,5.00
2018-04-27T08:09:22.658Z,5.00
2018-04-27T08:09:54.331Z,5.00
2018-04-27T08:10:26.046Z,5.00
2018-04-27T08:10:57.746Z,5.00
2018-04-27T08:11:29.454Z,5.00
2018-04-27T08:12:01.180Z,5.00
2018-04-27T08:12:32.868Z,5.00
2018-04-27T08:13:04.581Z,5.00
2018-04-27T08:13:36.281Z,5.00
2018-04-27T08:14:07.965Z,5.00
2018-04-27T08:14:39.650Z,5.00
2018-04-27T08:15:11.323Z,5.00
2018-04-27T08:15:43.047Z,5.00
2018-04-27T08:16:14.792Z,5.00
2018-04-27T08:16:46.501Z,5.00
2018-04-27T08:17:18.194Z,5.00
2018-04-27T08:17:49.957Z,5.00
2018-04-27T08:18:21.666Z,5.00
2018-04-27T08:18:53.370Z,5.00
2018-04-27T08:19:25.057Z,5.00
2018-04-27T08:19:56.774Z,5.00
2018-04-27T08:20:29.434Z,5.00
2018-04-27T08:21:01.102Z,5.00
2018-04-27T08:21:32.788Z,5.00
2018-04-27T08:22:04.498Z,5.00
2018-04-27T08:22:37.124Z,5.00
2018-04-27T08:23:08.881Z,5.00
2018-04-27T08:23:40.573Z,5.00
2018-04-27T08:24:12.270Z,5.00
2018-04-27T08:24:43.954Z,5.00
2018-04-27T08:25:15.661Z,5.00
2018-04-27T08:25:47.406Z,5.00
2018-04-27T08:26:21.975Z,5.00
2018-04-27T08:26:53.694Z,5.00
2018-04-27T08:27:25.396Z,5.00
2018-04-27T08:27:57.086Z,5.00
2018-04-27T08:28:28.787Z,5.00
2018-04-27T08:29:01.435Z,5.00
2018-04-27T08:29:33.175Z,5.00
2018-04-27T08:30:04.871Z,5.00
2018-04-27T08:30:36.574Z,5.00
2018-04-27T08:31:08.281Z,5.00
2018-04-27T08:31:40.061Z,5.00
2018-04-27T08:32:11.752Z,5.00
2018-04-27T08:32:43.462Z,5.00
2018-04-27T08:33:15.144Z,5.00
2018-04-27T08:33:46.808Z,5.00
2018-04-27T08:34:18.484Z,5.00
2018-04-27T08:34:50.204Z,5.00
2018-04-27T08:35:21.877Z,5.00
2018-04-27T08:35:53.541Z,5.00
2018-04-27T08:36:25.199Z,5.00
2018-04-27T08:36:56.823Z,5.00
2018-04-27T08:37:28.465Z,5.00
2018-04-27T08:38:00.109Z,5.00
2018-04-27T08:38:31.757Z,5.00
2018-04-27T08:39:03.430Z,5.00
2018-04-27T08:39:35.077Z,5.00
2018-04-27T08:40:06.768Z,5.00
2018-04-27T08:40:38.428Z,5.00
2018-04-27T08:41:10.089Z,5.00
2018-04-27T08:41:41.721Z,5.00
2018-04-27T08:42:13.383Z,5.00
2018-04-27T08:42:45.108Z,5.00
2018-04-27T08:43:16.766Z,5.00
2018-04-27T08:43:48.472Z,5.00
2018-04-27T08:44:20.168Z,5.00
2018-04-27T08:44:51.864Z,5.00
2018-04-27T08:45:23.526Z,5.00
2018-04-27T08:45:55.164Z,5.00
2018-04-27T08:46:28.889Z,5.00
2018-04-27T08:47:00.533Z,5.00
2018-04-27T08:47:32.214Z,5.00
2018-04-27T08:48:03.862Z,5.00
2018-04-27T08:48:35.524Z,5.00
2018-04-27T08:49:07.188Z,5.00
2018-04-27T08:49:39.149Z,5.00
2018-04-27T08:50:10.814Z,5.00
2018-04-27T08:50:42.518Z,5.00
2018-04-27T08:51:14.194Z,5.00
2018-04-27T08:51:45.888Z,5.00
2018-04-27T08:52:17.547Z,5.00
2018-04-27T08:52:49.270Z,5.00
2018-04-27T08:53:20.996Z,5.00
2018-04-27T08:53:52.712Z,5.00
2018-04-27T08:54:24.414Z,5.00
2018-04-27T08:54:56.116Z,5.00
2018-04-27T08:55:27.828Z,5.00
2018-04-27T08:55:59.537Z,5.00
2018-04-27T08:56:31.222Z,5.00
2018-04-27T08:57:02.906Z,5.00
2018-04-27T08:57:34.604Z,5.00
2018-04-27T08:58:06.329Z,5.00
2018-04-27T08:58:38.057Z,5.00
2018-04-27T08:59:09.758Z,5.00
2018-04-27T08:59:41.469Z,5.00
2018-04-27T09:00:13.192Z,5.00
2018-04-27T09:00:44.941Z,5.00
2018-04-27T09:01:16.627Z,5.00
2018-04-27T09:01:48.272Z,5.00
2018-04-27T09:02:19.939Z,5.00
2018-04-27T09:02:51.659Z,5.00
2018-04-27T09:03:23.327Z,5.00
2018-04-27T09:03:55.012Z,5.00
2018-04-27T09:04:26.677Z,5.00
2018-04-27T09:04:58.352Z,5.00
2018-04-27T09:05:30.022Z,5.00
2018-04-27T09:06:01.702Z,5.00
2018-04-27T09:06:33.364Z,5.00
2018-04-27T09:07:05.054Z,5.00
2018-04-27T09:07:36.724Z,5.00
2018-04-27T09:08:08.396Z,5.00
2018-04-27T09:08:40.053Z,5.00
2018-04-27T09:09:11.742Z,5.00
2018-04-27T09:09:43.400Z,5.00
2018-04-27T09:10:15.084Z,5.00
2018-04-27T09:10:46.748Z,5.00
2018-04-27T09:11:18.428Z,5.00
2018-04-27T09:11:50.078Z,5.00
2018-04-27T09:12:21.730Z,5.00
2018-04-27T09:12:53.386Z,5.00
2018-04-27T09:13:25.014Z,5.00
2018-04-27T09:13:56.656Z,5.00
2018-04-27T09:14:28.312Z,5.00
2018-04-27T09:14:59.972Z,5.00
2018-04-27T09:15:31.630Z,5.00
2018-04-27T09:16:03.300Z,5.00
2018-04-27T09:16:34.974Z,5.00
2018-04-27T09:17:06.651Z,5.00
2018-04-27T09:17:38.310Z,5.00
2018-04-27T09:18:09.986Z,5.00
2018-04-27T09:18:41.636Z,5.00
2018-04-27T09:19:13.283Z,5.00
2018-04-27T09:19:44.905Z,5.00
2018-04-27T09:20:16.540Z,5.00
2018-04-27T09:20:48.176Z,5.00
2018-04-27T09:21:19.868Z,5.00
2018-04-27T09:21:51.540Z,5.00
2018-04-27T09:22:23.206Z,5.00
2018-04-27T09:22:54.880Z,5.00
2018-04-27T09:23:26.542Z,5.00
2018-04-27T09:23:58.178Z,5.00
2018-04-27T09:24:29.879Z,5.00
2018-04-27T09:25:01.549Z,5.00
2018-04-27T09:25:33.227Z,5.00
2018-04-27T09:26:04.918Z,5.00